createdAt,value
2022-12-15T00:00:48.811Z,98306.22
2022-12-15T00:03:31.472Z,98315.13
2022-12-15T00:06:15.584Z,98312.31
2022-12-15T00:08:57.800Z,98311.69
2022-12-15T00:11:42.574Z,98302.88
2022-12-15T00:14:26.193Z,98302.31
2022-12-15T00:17:08.380Z,98305.88
2022-12-15T00:19:50.527Z,98297.94
2022-12-15T00:22:32.813Z,98299.78
2022-12-15T00:25:15.316Z,98299.44
2022-12-15T00:28:00.099Z,98311.06
2022-12-15T00:30:42.868Z,98309.66
2022-12-15T00:33:26.457Z,98310.84
2022-12-15T00:36:10.231Z,98318.66
2022-12-15T00:38:46.253Z,98323.75
2022-12-15T00:41:18.379Z,98329.63
2022-12-15T00:43:50.655Z,98324.50
2022-12-15T00:46:32.880Z,98332.31
2022-12-15T00:49:03.281Z,98330.59
2022-12-15T00:51:45.594Z,98329.91
2022-12-15T00:54:28.033Z,98324.38
2022-12-15T00:57:10.227Z,98319.66
2022-12-15T00:59:54.987Z,98335.34
2022-12-15T01:02:37.239Z,98344.25
2022-12-15T01:05:20.502Z,98341.53
2022-12-15T01:08:02.672Z,98349.31
2022-12-15T01:10:44.880Z,98345.72
2022-12-15T01:13:29.045Z,98352.25
2022-12-15T01:16:14.142Z,98356.75
2022-12-15T01:18:56.396Z,98353.53
2022-12-15T01:21:26.114Z,98359.53
2022-12-15T01:23:56.461Z,98356.00
2022-12-15T01:26:26.140Z,98358.28
2022-12-15T01:28:55.824Z,98361.44
2022-12-15T01:31:28.626Z,98360.16
2022-12-15T01:33:58.338Z,98358.59
2022-12-15T01:36:30.594Z,98366.97
2022-12-15T01:39:00.274Z,98360.25
2022-12-15T01:41:27.924Z,98359.31
2022-12-15T01:43:57.628Z,98357.75
2022-12-15T01:46:30.033Z,98351.31
2022-12-15T01:49:10.760Z,98358.28
2022-12-15T01:51:44.978Z,98365.84
2022-12-15T01:54:18.526Z,98365.47
2022-12-15T01:56:51.291Z,98363.75
2022-12-15T01:59:25.188Z,98361.59
2022-12-15T02:01:57.517Z,98363.69
2022-12-15T02:04:28.054Z,98378.72
2022-12-15T02:06:57.761Z,98370.63
2022-12-15T02:09:29.427Z,98364.53
2022-12-15T02:12:15.285Z,98369.19
2022-12-15T02:14:56.669Z,98368.09
2022-12-15T02:17:38.447Z,98372.09
2022-12-15T02:20:38.021Z,98377.38
2022-12-15T02:23:48.277Z,98367.91
2022-12-15T02:26:39.557Z,98378.41
2022-12-15T02:29:21.841Z,98373.34
2022-12-15T02:32:01.491Z,98381.03
2022-12-15T02:34:41.241Z,98384.03
2022-12-15T02:37:16.244Z,98382.38
2022-12-15T02:39:46.133Z,98388.31
2022-12-15T02:42:16.507Z,98389.63
2022-12-15T02:44:51.160Z,98400.38
2022-12-15T02:47:35.364Z,98401.41
2022-12-15T02:50:29.248Z,98407.06
2022-12-15T02:53:13.720Z,98404.38
2022-12-15T02:55:53.305Z,98406.41
2022-12-15T02:58:31.971Z,98412.59
2022-12-15T03:01:05.469Z,98408.25
2022-12-15T03:03:38.648Z,98405.53
2022-12-15T03:06:08.978Z,98415.88
2022-12-15T03:08:41.021Z,98416.16
2022-12-15T03:11:10.813Z,98428.72
2022-12-15T03:13:40.518Z,98428.34
2022-12-15T03:16:10.762Z,98438.59
2022-12-15T03:18:43.137Z,98439.66
2022-12-15T03:21:12.817Z,98443.09
2022-12-15T03:23:42.528Z,98450.22
2022-12-15T03:26:12.284Z,98452.53
2022-12-15T03:28:42.785Z,98453.25
2022-12-15T03:31:12.733Z,98445.97
2022-12-15T03:33:45.114Z,98449.28
2022-12-15T03:36:14.804Z,98451.63
2022-12-15T03:38:47.490Z,98460.13
2022-12-15T03:41:17.986Z,98464.13
2022-12-15T03:43:50.151Z,98445.63
2022-12-15T03:46:19.956Z,98448.41
2022-12-15T03:48:52.433Z,98447.22
2022-12-15T03:51:22.180Z,98451.31
2022-12-15T03:53:52.083Z,98444.44
2022-12-15T03:56:21.789Z,98457.50
2022-12-15T03:58:51.536Z,98459.63
2022-12-15T04:01:29.646Z,98454.41
2022-12-15T04:04:03.037Z,98461.88
2022-12-15T04:06:33.548Z,98467.19
2022-12-15T04:09:03.253Z,98463.00
2022-12-15T04:11:32.966Z,98472.00
2022-12-15T04:14:02.654Z,98466.81
2022-12-15T04:16:32.580Z,98462.00
2022-12-15T04:19:17.378Z,98469.53
2022-12-15T04:21:47.222Z,98468.75
2022-12-15T04:24:29.488Z,98477.50
2022-12-15T04:27:11.658Z,98485.88
2022-12-15T04:29:53.848Z,98484.41
2022-12-15T04:32:36.046Z,98498.47
2022-12-15T04:35:21.541Z,98494.69
2022-12-15T04:38:03.741Z,98488.06
2022-12-15T04:40:45.939Z,98492.38
2022-12-15T04:43:28.370Z,98496.38
2022-12-15T04:46:10.833Z,98497.13
2022-12-15T04:48:53.032Z,98490.00
2022-12-15T04:51:37.802Z,98486.69
2022-12-15T04:54:19.952Z,98493.66
2022-12-15T04:57:02.129Z,98494.84
2022-12-15T04:59:44.346Z,98495.00
2022-12-15T05:02:26.751Z,98499.06
2022-12-15T05:05:09.021Z,98496.00
2022-12-15T05:07:53.811Z,98503.66
2022-12-15T05:10:36.021Z,98509.56
2022-12-15T05:13:22.264Z,98521.69
2022-12-15T05:16:04.507Z,98531.97
2022-12-15T05:18:46.770Z,98528.16
2022-12-15T05:21:28.951Z,98523.84
2022-12-15T05:24:13.697Z,98524.50
2022-12-15T05:26:55.928Z,98525.84
2022-12-15T05:29:38.148Z,98534.78
2022-12-15T05:32:08.116Z,98542.34
2022-12-15T05:34:39.178Z,98535.44
2022-12-15T05:37:09.117Z,98529.97
2022-12-15T05:39:41.609Z,98533.13
2022-12-15T05:42:11.539Z,98532.31
2022-12-15T05:44:41.864Z,98536.94
2022-12-15T05:47:11.896Z,98527.97
2022-12-15T05:49:41.605Z,98541.72
2022-12-15T05:52:11.611Z,98540.75
2022-12-15T05:54:43.902Z,98541.91
2022-12-15T05:57:13.641Z,98544.06
2022-12-15T05:59:43.378Z,98542.06
2022-12-15T06:02:13.192Z,98553.38
2022-12-15T06:04:43.639Z,98548.72
2022-12-15T06:07:13.385Z,98551.03
2022-12-15T06:09:45.731Z,98552.16
2022-12-15T06:12:15.460Z,98563.31
2022-12-15T06:14:45.215Z,98571.59
2022-12-15T06:17:15.015Z,98569.69
2022-12-15T06:19:44.690Z,98569.22
2022-12-15T06:22:14.354Z,98566.88
2022-12-15T06:24:46.831Z,98566.25
2022-12-15T06:27:16.586Z,98573.13
2022-12-15T06:29:46.348Z,98570.22
2022-12-15T06:32:16.096Z,98585.69
2022-12-15T06:34:45.807Z,98588.19
2022-12-15T06:37:15.576Z,98591.47
2022-12-15T06:39:48.068Z,98587.19
2022-12-15T06:42:17.789Z,98578.53
2022-12-15T06:44:47.585Z,98584.03
2022-12-15T06:47:20.035Z,98574.81
2022-12-15T06:49:49.923Z,98590.00
2022-12-15T06:52:19.651Z,98594.44
2022-12-15T06:54:51.976Z,98588.78
2022-12-15T06:57:21.695Z,98598.09
2022-12-15T06:59:51.417Z,98585.84
2022-12-15T07:02:28.861Z,98582.84
2022-12-15T07:04:59.041Z,98590.53
2022-12-15T07:07:29.112Z,98603.44
2022-12-15T07:10:01.393Z,98605.41
2022-12-15T07:12:31.147Z,98622.66
2022-12-15T07:15:00.923Z,98626.72
2022-12-15T07:17:30.970Z,98627.25
2022-12-15T07:20:00.704Z,98624.97
2022-12-15T07:22:31.177Z,98635.31
2022-12-15T07:25:03.554Z,98630.00
2022-12-15T07:27:33.451Z,98642.09
2022-12-15T07:30:03.189Z,98641.94
2022-12-15T07:32:33.161Z,98649.53
2022-12-15T07:35:05.439Z,98648.88
2022-12-15T07:37:35.169Z,98649.88
2022-12-15T07:40:08.832Z,98653.88
2022-12-15T07:42:39.115Z,98654.53
2022-12-15T07:45:10.854Z,98654.22
2022-12-15T07:47:40.626Z,98663.50
2022-12-15T07:50:11.582Z,98649.03
2022-12-15T07:52:41.281Z,98661.75
2022-12-15T07:55:13.777Z,98677.78
2022-12-15T07:57:43.546Z,98684.91
2022-12-15T08:00:14.857Z,98681.09
2022-12-15T08:02:45.068Z,98679.94
2022-12-15T08:05:19.853Z,98673.47
2022-12-15T08:07:49.639Z,98686.47
2022-12-15T08:10:21.998Z,98687.28
2022-12-15T08:12:51.727Z,98674.38
2022-12-15T08:15:21.481Z,98688.53
2022-12-15T08:17:51.663Z,98687.72
2022-12-15T08:20:21.474Z,98691.53
2022-12-15T08:22:51.197Z,98686.44
2022-12-15T08:25:23.496Z,98689.19
2022-12-15T08:27:53.261Z,98694.44
2022-12-15T08:30:23.043Z,98700.94
2022-12-15T08:32:53.022Z,98697.50
2022-12-15T08:35:54.478Z,98698.88
2022-12-15T08:38:12.717Z,98695.66
2022-12-15T08:40:45.029Z,98698.16
2022-12-15T08:43:14.806Z,98689.38
2022-12-15T08:45:45.133Z,98681.59
2022-12-15T08:48:15.047Z,98697.75
2022-12-15T08:50:47.042Z,98687.69
2022-12-15T08:53:32.528Z,98687.00
2022-12-15T08:56:08.699Z,98691.25
2022-12-15T08:58:39.273Z,98691.13
2022-12-15T09:01:11.121Z,98703.50
2022-12-15T09:03:41.225Z,98712.31
2022-12-15T09:06:15.935Z,98711.78
2022-12-15T09:08:48.546Z,98715.44
2022-12-15T09:11:23.114Z,98717.47
2022-12-15T09:13:52.971Z,98718.91
2022-12-15T09:16:23.963Z,98721.75
2022-12-15T09:18:55.664Z,98722.28
2022-12-15T09:21:27.303Z,98718.00
2022-12-15T09:24:00.747Z,98719.81
2022-12-15T09:26:35.426Z,98717.38
2022-12-15T09:29:05.822Z,98715.22
2022-12-15T09:31:39.804Z,98725.13
2022-12-15T09:34:09.546Z,98718.78
2022-12-15T09:36:39.254Z,98726.13
2022-12-15T09:39:08.976Z,98723.78
2022-12-15T09:41:43.331Z,98729.78
2022-12-15T09:44:16.179Z,98729.59
2022-12-15T09:46:57.351Z,98735.94
2022-12-15T09:49:40.738Z,98741.47
2022-12-15T09:52:15.607Z,98728.91
2022-12-15T09:54:46.863Z,98734.28
2022-12-15T09:57:28.032Z,98741.25
2022-12-15T10:00:10.151Z,98746.63
2022-12-15T10:02:58.576Z,98758.16
2022-12-15T10:06:07.348Z,98763.16
2022-12-15T10:08:33.784Z,98757.81
2022-12-15T10:11:06.667Z,98760.28
2022-12-15T10:13:45.490Z,98761.44
2022-12-15T10:16:23.908Z,98763.66
2022-12-15T10:19:01.855Z,98770.53
2022-12-15T10:21:34.723Z,98770.81
2022-12-15T10:24:15.049Z,98762.97
2022-12-15T10:26:45.906Z,98771.50
2022-12-15T10:29:36.570Z,98773.72
2022-12-15T10:32:08.769Z,98774.31
2022-12-15T10:34:39.922Z,98772.06
2022-12-15T10:37:16.289Z,98773.28
2022-12-15T10:39:50.261Z,98768.94
2022-12-15T10:42:23.518Z,98768.75
2022-12-15T10:44:57.870Z,98764.81
2022-12-15T10:47:29.687Z,98754.53
2022-12-15T10:50:24.503Z,98758.97
2022-12-15T10:52:55.042Z,98760.78
2022-12-15T10:55:40.997Z,98752.19
2022-12-15T10:58:20.739Z,98757.59
2022-12-15T11:01:08.883Z,98754.13
2022-12-15T11:03:41.378Z,98759.19
2022-12-15T11:06:17.930Z,98760.13
2022-12-15T11:08:48.388Z,98752.09
2022-12-15T11:11:45.855Z,98749.53
2022-12-15T11:14:18.874Z,98754.72
2022-12-15T11:16:55.373Z,98761.53
2022-12-15T11:19:34.396Z,98766.00
2022-12-15T11:22:08.783Z,98765.16
2022-12-15T11:24:45.579Z,98771.81
2022-12-15T11:27:24.634Z,98779.50
2022-12-15T11:30:02.777Z,98783.59
2022-12-15T11:32:38.282Z,98779.97
2022-12-15T11:35:14.374Z,98771.75
2022-12-15T11:37:46.037Z,98764.84
2022-12-15T11:40:37.143Z,98773.59
2022-12-15T11:43:30.169Z,98773.41
2022-12-15T11:46:21.102Z,98770.56
2022-12-15T11:49:09.293Z,98767.78
2022-12-15T11:51:45.348Z,98777.22
2022-12-15T11:54:25.669Z,98775.06
2022-12-15T11:57:02.123Z,98772.44
2022-12-15T12:00:01.972Z,98772.06
2022-12-15T12:02:54.296Z,98770.47
2022-12-15T12:05:46.825Z,98776.84
2022-12-15T12:08:32.640Z,98769.69
2022-12-15T12:11:11.402Z,98769.34
2022-12-15T12:13:53.527Z,98770.41
2022-12-15T12:16:37.609Z,98762.75
2022-12-15T12:19:09.593Z,98764.81
2022-12-15T12:21:46.846Z,98758.38
2022-12-15T12:24:26.517Z,98751.69
2022-12-15T12:27:01.952Z,98756.16
2022-12-15T12:29:36.824Z,98746.94
2022-12-15T12:32:14.323Z,98750.94
2022-12-15T12:35:32.159Z,98752.56
2022-12-15T12:38:01.031Z,98749.00
2022-12-15T12:40:44.762Z,98747.41
2022-12-15T12:43:25.559Z,98747.25
2022-12-15T12:45:58.741Z,98760.66
2022-12-15T12:48:34.956Z,98761.34
2022-12-15T12:51:25.015Z,98757.47
2022-12-15T12:53:58.335Z,98749.34
2022-12-15T12:56:34.199Z,98746.16
2022-12-15T12:59:08.798Z,98747.03
2022-12-15T13:01:40.370Z,98744.09
2022-12-15T13:04:13.751Z,98744.09
2022-12-15T13:06:59.759Z,98750.63
2022-12-15T13:09:44.096Z,98750.03
2022-12-15T13:12:53.457Z,98753.84
2022-12-15T13:15:43.817Z,98747.94
2022-12-15T13:18:18.472Z,98743.84
2022-12-15T13:20:50.878Z,98746.09
2022-12-15T13:23:45.682Z,98755.28
2022-12-15T13:26:21.706Z,98758.69
2022-12-15T13:28:53.770Z,98752.88
2022-12-15T13:31:30.131Z,98748.69
2022-12-15T13:34:32.371Z,98746.31
2022-12-15T13:37:03.898Z,98743.16
2022-12-15T13:39:59.989Z,98744.00
2022-12-15T13:45:51.499Z,98740.00
2022-12-15T13:48:30.733Z,98728.53
2022-12-15T13:51:07.375Z,98728.81
2022-12-15T13:53:43.177Z,98725.03
2022-12-15T13:56:42.926Z,98725.41
2022-12-15T13:59:27.508Z,98720.97
2022-12-15T14:01:57.407Z,98722.16
2022-12-15T14:04:29.704Z,98712.25
2022-12-15T14:07:02.961Z,98712.75
2022-12-15T14:09:36.842Z,98715.06
2022-12-15T14:12:10.460Z,98710.28
2022-12-15T14:14:49.044Z,98721.47
2022-12-15T14:17:21.908Z,98729.44
2022-12-15T14:19:53.436Z,98725.47
2022-12-15T14:22:29.065Z,98722.34
2022-12-15T14:25:06.143Z,98731.34
2022-12-15T14:27:36.586Z,98733.75
2022-12-15T14:30:24.466Z,98730.44
2022-12-15T14:32:59.258Z,98741.91
2022-12-15T14:35:33.431Z,98740.69
2022-12-15T14:38:08.902Z,98751.09
2022-12-15T14:40:40.574Z,98744.63
2022-12-15T14:43:14.577Z,98749.69
2022-12-15T14:45:46.954Z,98752.28
2022-12-15T14:48:41.033Z,98758.94
2022-12-15T14:51:13.060Z,98757.06
2022-12-15T14:53:46.018Z,98757.13
2022-12-15T14:56:29.679Z,98757.59
2022-12-15T14:59:21.905Z,98753.88
2022-12-15T15:02:02.123Z,98750.78
2022-12-15T15:03:11.018Z,98737.00
2022-12-15T15:04:34.259Z,98746.75
2022-12-15T15:07:07.083Z,98744.97
2022-12-15T15:09:42.223Z,98753.03
2022-12-15T15:12:18.091Z,98757.59
2022-12-15T15:14:50.857Z,98760.91
2022-12-15T15:17:37.918Z,98753.47
2022-12-15T15:20:18.698Z,98745.09
2022-12-15T15:22:49.355Z,98739.63
2022-12-15T15:25:33.606Z,98744.78
2022-12-15T15:28:16.616Z,98743.13
2022-12-15T15:30:48.673Z,98735.84
2022-12-15T15:33:21.726Z,98734.41
2022-12-15T15:35:54.548Z,98735.91
2022-12-15T15:38:27.117Z,98732.38
2022-12-15T15:40:58.979Z,98736.47
2022-12-15T15:43:30.330Z,98749.25
2022-12-15T15:46:03.458Z,98740.06
2022-12-15T15:48:38.517Z,98753.69
2022-12-15T15:51:08.985Z,98744.78
2022-12-15T15:53:40.136Z,98749.13
2022-12-15T15:56:13.537Z,98753.06
2022-12-15T15:58:43.910Z,98752.41
2022-12-15T16:01:14.181Z,98757.44
2022-12-15T16:03:46.543Z,98756.09
2022-12-15T16:06:19.903Z,98762.84
2022-12-15T16:08:54.658Z,98764.13
2022-12-15T16:11:28.322Z,98770.97
2022-12-15T16:13:58.023Z,98772.03
2022-12-15T16:16:32.870Z,98767.91
2022-12-15T16:19:05.211Z,98771.75
2022-12-15T16:21:35.474Z,98781.19
2022-12-15T16:24:11.393Z,98783.97
2022-12-15T16:26:44.505Z,98786.72
2022-12-15T16:29:17.500Z,98790.25
2022-12-15T16:31:47.469Z,98795.59
2022-12-15T16:34:21.818Z,98799.56
2022-12-15T16:36:51.507Z,98794.75
2022-12-15T16:39:30.602Z,98802.50
2022-12-15T16:42:00.856Z,98805.13
2022-12-15T16:44:31.937Z,98802.28
2022-12-15T16:47:01.722Z,98805.72
2022-12-15T16:49:40.018Z,98807.63
2022-12-15T16:52:19.835Z,98803.47
2022-12-15T16:54:51.202Z,98810.19
2022-12-15T16:57:21.359Z,98814.38
2022-12-15T16:59:51.031Z,98811.63
2022-12-15T17:02:30.329Z,98820.34
2022-12-15T17:05:02.849Z,98830.13
2022-12-15T17:07:33.233Z,98821.78
2022-12-15T17:10:03.385Z,98834.59
2022-12-15T17:12:33.532Z,98836.78
2022-12-15T17:15:03.972Z,98824.38
2022-12-15T17:17:33.897Z,98830.84
2022-12-15T17:23:00.479Z,98829.84
2022-12-15T17:26:18.035Z,98830.66
2022-12-15T17:28:32.471Z,98828.56
2022-12-15T17:31:03.086Z,98827.53
2022-12-15T17:33:36.493Z,98829.34
2022-12-15T17:36:18.160Z,98830.78
2022-12-15T17:38:47.891Z,98822.78
2022-12-15T17:41:42.251Z,98822.72
2022-12-15T17:44:37.903Z,98825.00
2022-12-15T17:47:10.497Z,98827.88
2022-12-15T17:49:40.874Z,98831.25
2022-12-15T17:52:30.963Z,98844.41
2022-12-15T17:55:00.889Z,98841.50
2022-12-15T17:57:32.228Z,98856.34
2022-12-15T18:00:02.452Z,98847.03
2022-12-15T18:02:35.273Z,98850.84
2022-12-15T18:05:05.116Z,98849.53
2022-12-15T18:07:37.575Z,98839.34
2022-12-15T18:10:08.343Z,98836.69
2022-12-15T18:12:38.055Z,98840.38
2022-12-15T18:15:20.384Z,98848.59
2022-12-15T18:17:50.263Z,98850.47
2022-12-15T18:20:21.486Z,98857.22
2022-12-15T18:22:54.577Z,98863.72
2022-12-15T18:25:26.623Z,98858.63
2022-12-15T18:27:56.896Z,98868.63
2022-12-15T18:30:28.895Z,98870.84
2022-12-15T18:33:01.368Z,98876.97
2022-12-15T18:35:36.676Z,98872.00
2022-12-15T18:38:16.953Z,98877.78
2022-12-15T18:40:48.580Z,98870.09
2022-12-15T18:43:20.181Z,98874.69
2022-12-15T18:45:51.900Z,98877.25
2022-12-15T18:48:24.807Z,98882.41
2022-12-15T18:50:56.549Z,98878.06
2022-12-15T18:53:31.320Z,98877.44
2022-12-15T18:56:03.769Z,98866.47
2022-12-15T18:58:35.150Z,98863.41
2022-12-15T19:01:07.715Z,98858.28
2022-12-15T19:03:38.841Z,98860.66
2022-12-15T19:06:11.704Z,98860.59
2022-12-15T19:08:44.268Z,98858.50
2022-12-15T19:11:19.720Z,98859.06
2022-12-15T19:13:49.442Z,98866.81
2022-12-15T19:16:22.279Z,98859.78
2022-12-15T19:19:04.613Z,98850.16
2022-12-15T19:21:48.371Z,98860.75
2022-12-15T19:24:46.887Z,98855.47
2022-12-15T19:27:20.916Z,98858.47
2022-12-15T19:29:51.003Z,98855.22
2022-12-15T19:32:20.755Z,98843.56
2022-12-15T19:34:50.440Z,98844.25
2022-12-15T19:37:26.537Z,98845.88
2022-12-15T19:40:00.769Z,98839.25
2022-12-15T19:42:35.477Z,98844.66
2022-12-15T19:45:16.666Z,98847.78
2022-12-15T19:47:46.549Z,98841.00
2022-12-15T19:50:18.080Z,98851.28
2022-12-15T19:52:49.854Z,98849.00
2022-12-15T19:55:28.379Z,98848.59
2022-12-15T19:57:58.158Z,98853.13
2022-12-15T20:00:28.195Z,98858.97
2022-12-15T20:03:00.161Z,98849.63
2022-12-15T20:05:30.504Z,98854.28
2022-12-15T20:08:00.160Z,98862.91
2022-12-15T20:10:32.912Z,98860.66
2022-12-15T20:13:03.456Z,98863.22
2022-12-15T20:15:33.233Z,98860.56
2022-12-15T20:18:02.902Z,98864.06
2022-12-15T20:20:32.715Z,98849.69
2022-12-15T20:23:06.223Z,98862.22
2022-12-15T20:25:40.381Z,98858.75
2022-12-15T20:28:16.999Z,98856.28
2022-12-15T20:30:47.608Z,98855.81
2022-12-15T20:33:18.315Z,98855.22
2022-12-15T20:35:50.863Z,98853.84
2022-12-15T20:38:29.101Z,98846.13
2022-12-15T20:41:02.355Z,98846.63
2022-12-15T20:43:35.080Z,98848.66
2022-12-15T20:46:08.640Z,98854.91
2022-12-15T20:48:39.323Z,98848.44
2022-12-15T20:51:11.058Z,98848.59
2022-12-15T20:53:41.899Z,98863.81
2022-12-15T20:56:14.643Z,98852.75
2022-12-15T20:58:46.066Z,98841.25
2022-12-15T21:01:21.579Z,98840.88
2022-12-15T21:03:53.008Z,98862.81
2022-12-15T21:06:23.140Z,98852.34
2022-12-15T21:08:52.860Z,98849.59
2022-12-15T21:11:26.898Z,98852.88
2022-12-15T21:14:04.081Z,98850.66
2022-12-15T21:16:34.805Z,98845.78
2022-12-15T21:19:22.600Z,98837.47
2022-12-15T21:21:55.843Z,98840.19
2022-12-15T21:24:28.024Z,98845.81
2022-12-15T21:27:01.603Z,98852.75
2022-12-15T21:29:38.933Z,98844.59
2022-12-15T21:32:08.642Z,98847.78
2022-12-15T21:34:39.364Z,98851.75
2022-12-15T21:37:16.249Z,98855.38
2022-12-15T21:39:46.096Z,98854.75
2022-12-15T21:42:21.140Z,98859.75
2022-12-15T21:44:51.067Z,98853.34
2022-12-15T21:47:47.515Z,98847.84
2022-12-15T21:50:14.502Z,98846.91
2022-12-15T21:52:44.763Z,98842.97
2022-12-15T21:55:18.329Z,98842.31
2022-12-15T21:57:50.590Z,98844.25
2022-12-15T22:00:23.244Z,98855.84
2022-12-15T22:02:54.383Z,98852.06
2022-12-15T22:05:29.380Z,98861.41
2022-12-15T22:08:01.337Z,98853.22
2022-12-15T22:10:31.073Z,98860.97
2022-12-15T22:13:03.442Z,98851.91
2022-12-15T22:15:33.206Z,98866.22
2022-12-15T22:18:02.963Z,98852.94
2022-12-15T22:20:32.681Z,98866.41
2022-12-15T22:23:02.414Z,98863.41
2022-12-15T22:25:32.125Z,98867.78
2022-12-15T22:28:04.351Z,98871.78
2022-12-15T22:30:34.052Z,98881.19
2022-12-15T22:33:05.177Z,98870.75
2022-12-15T22:35:34.815Z,98869.59
2022-12-15T22:38:04.467Z,98878.75
2022-12-15T22:40:34.316Z,98873.94
2022-12-15T22:43:07.740Z,98878.00
2022-12-15T22:45:41.256Z,98875.00
2022-12-15T22:48:15.579Z,98873.75
2022-12-15T22:50:45.325Z,98874.09
2022-12-15T22:53:17.023Z,98876.63
2022-12-15T22:55:49.143Z,98867.91
2022-12-15T22:58:29.040Z,98881.63
2022-12-15T23:01:01.102Z,98874.22
2022-12-15T23:03:32.301Z,98866.69
2022-12-15T23:06:04.099Z,98869.91
2022-12-15T23:08:34.786Z,98869.22
2022-12-15T23:11:16.997Z,98880.25
2022-12-15T23:13:49.327Z,98881.53
2022-12-15T23:16:21.624Z,98885.94
2022-12-15T23:18:52.737Z,98883.56
2022-12-15T23:21:25.968Z,98876.56
2022-12-15T23:23:55.754Z,98879.19
2022-12-15T23:26:26.067Z,98888.59
2022-12-15T23:28:58.354Z,98885.63
2022-12-15T23:31:28.115Z,98891.56
2022-12-15T23:33:57.860Z,98883.56
2022-12-15T23:36:27.598Z,98880.00
2022-12-15T23:38:57.718Z,98871.63
2022-12-15T23:41:29.246Z,98878.81
2022-12-15T23:44:01.614Z,98877.81
2022-12-15T23:46:31.358Z,98876.34
2022-12-15T23:49:01.613Z,98885.56
2022-12-15T23:51:31.664Z,98876.00
2022-12-15T23:54:01.343Z,98874.53
2022-12-15T23:56:31.049Z,98883.22
2022-12-15T23:59:03.324Z,98879.91
